createdAt,value
2023-03-26T00:01:14.293Z,9.06
2023-03-26T00:06:24.298Z,9.04
2023-03-26T00:11:33.396Z,9.02
2023-03-26T00:16:43.145Z,9.01
2023-03-26T00:21:52.904Z,8.99
2023-03-26T00:27:01.457Z,8.97
2023-03-26T00:32:09.749Z,8.95
2023-03-26T00:37:18.967Z,8.93
2023-03-26T00:42:28.031Z,8.90
2023-03-26T00:47:37.142Z,8.87
2023-03-26T00:52:46.886Z,8.84
2023-03-26T00:57:55.841Z,8.80
2023-03-26T01:03:04.948Z,8.75
2023-03-26T01:08:19.783Z,8.70
2023-03-26T01:13:28.617Z,8.66
2023-03-26T01:18:41.450Z,8.60
2023-03-26T01:23:53.065Z,8.56
2023-03-26T01:29:04.874Z,8.52
2023-03-26T01:34:20.467Z,8.47
2023-03-26T01:39:39.221Z,8.44
2023-03-26T01:44:52.361Z,8.40
2023-03-26T01:50:00.692Z,8.35
2023-03-26T01:55:12.066Z,8.31
2023-03-26T02:00:28.139Z,8.26
2023-03-26T02:05:44.383Z,8.23
2023-03-26T02:10:58.757Z,8.19
2023-03-26T02:16:08.925Z,8.15
2023-03-26T02:21:20.872Z,8.13
2023-03-26T02:26:29.131Z,8.12
2023-03-26T02:31:48.691Z,8.12
2023-03-26T02:36:57.593Z,8.14
2023-03-26T02:42:06.474Z,8.16
2023-03-26T02:47:19.929Z,8.19
2023-03-26T02:52:34.218Z,8.21
2023-03-26T02:57:43.257Z,8.24
2023-03-26T03:03:04.473Z,8.26
2023-03-26T03:08:12.833Z,8.28
2023-03-26T03:13:27.844Z,8.30
2023-03-26T03:18:36.871Z,8.30
2023-03-26T03:23:45.620Z,8.31
2023-03-26T03:28:55.569Z,8.31
2023-03-26T03:34:04.080Z,8.32
2023-03-26T03:39:14.741Z,8.34
2023-03-26T03:44:23.716Z,8.37
2023-03-26T03:49:32.050Z,8.39
2023-03-26T03:54:39.448Z,8.39
2023-03-26T04:00:01.893Z,8.42
2023-03-26T04:05:23.980Z,8.43
2023-03-26T04:10:33.073Z,8.45
2023-03-26T04:16:01.661Z,8.47
2023-03-26T04:21:12.930Z,8.49
2023-03-26T04:26:21.880Z,8.50
2023-03-26T04:31:43.530Z,8.51
2023-03-26T04:36:55.469Z,8.53
2023-03-26T04:42:07.780Z,8.55
2023-03-26T04:47:26.219Z,8.56
2023-03-26T04:52:34.962Z,8.58
2023-03-26T04:58:06.337Z,8.60
2023-03-26T05:03:51.729Z,8.62
2023-03-26T05:09:00.237Z,8.64
2023-03-26T05:14:33.614Z,8.66
2023-03-26T05:19:43.048Z,8.68
2023-03-26T05:24:51.867Z,8.71
2023-03-26T05:30:07.749Z,8.74
2023-03-26T05:35:21.106Z,8.77
2023-03-26T05:40:30.210Z,8.79
2023-03-26T05:45:41.306Z,8.83
2023-03-26T05:51:00.864Z,8.86
2023-03-26T05:56:13.000Z,8.89
2023-03-26T06:01:56.824Z,8.92
2023-03-26T06:07:05.457Z,8.95
2023-03-26T06:12:14.667Z,8.98
2023-03-26T06:17:23.182Z,9.01
2023-03-26T06:23:03.649Z,9.03
2023-03-26T06:28:29.178Z,9.07
2023-03-26T06:33:56.711Z,9.10
2023-03-26T06:39:07.876Z,9.14
2023-03-26T06:44:19.268Z,9.18
2023-03-26T06:49:59.573Z,9.22
2023-03-26T06:55:17.516Z,9.25
2023-03-26T07:00:42.665Z,9.29
2023-03-26T07:06:10.020Z,9.34
2023-03-26T07:11:58.570Z,9.39
2023-03-26T07:17:15.859Z,9.45
2023-03-26T07:22:38.260Z,9.50
2023-03-26T07:28:14.515Z,9.57
2023-03-26T07:33:47.250Z,9.66
2023-03-26T07:39:38.046Z,9.75
2023-03-26T07:45:13.372Z,9.83
2023-03-26T07:50:42.846Z,9.92
2023-03-26T07:56:07.679Z,9.98
2023-03-26T08:01:41.829Z,10.02
2023-03-26T08:07:02.463Z,10.04
2023-03-26T08:12:41.161Z,10.07
2023-03-26T08:17:55.118Z,10.11
2023-03-26T08:23:09.757Z,10.15
2023-03-26T08:28:33.889Z,10.19
2023-03-26T08:33:42.671Z,10.26
2023-03-26T08:38:52.830Z,10.32
2023-03-26T08:44:19.027Z,10.36
2023-03-26T08:50:00.300Z,10.41
2023-03-26T08:55:31.189Z,10.46
2023-03-26T09:00:59.401Z,10.54
2023-03-26T09:06:52.595Z,10.61
2023-03-26T09:12:32.741Z,10.67
2023-03-26T09:18:11.374Z,10.71
2023-03-26T09:23:42.132Z,10.74
2023-03-26T09:29:24.018Z,10.79
2023-03-26T09:34:35.763Z,10.88
2023-03-26T09:39:59.854Z,10.97
2023-03-26T09:45:45.421Z,11.03
2023-03-26T09:51:17.769Z,11.06
2023-03-26T09:56:39.711Z,11.07
2023-03-26T10:01:59.517Z,11.06
2023-03-26T10:07:19.142Z,11.05
2023-03-26T10:12:37.504Z,11.04
2023-03-26T10:18:02.731Z,11.00
2023-03-26T10:24:03.007Z,10.93
2023-03-26T10:29:26.523Z,10.85
2023-03-26T10:34:52.666Z,10.80
2023-03-26T10:40:24.677Z,10.76
2023-03-26T10:45:48.893Z,10.74
2023-03-26T10:51:25.757Z,10.72
2023-03-26T10:56:38.352Z,10.73
2023-03-26T11:02:02.101Z,10.75
2023-03-26T11:07:21.708Z,10.83
2023-03-26T11:12:39.561Z,10.95
2023-03-26T11:18:00.827Z,11.07
2023-03-26T11:23:24.540Z,11.17
2023-03-26T11:29:03.284Z,11.26
2023-03-26T11:34:20.979Z,11.33
2023-03-26T11:39:31.444Z,11.33
2023-03-26T11:44:44.838Z,11.27
2023-03-26T11:49:55.847Z,11.20
2023-03-26T11:55:04.542Z,11.14
2023-03-26T12:00:19.177Z,11.14
2023-03-26T12:05:31.995Z,11.17
2023-03-26T12:10:44.714Z,11.23
2023-03-26T12:15:53.752Z,11.30
2023-03-26T12:21:11.095Z,11.37
2023-03-26T12:26:23.582Z,11.43
2023-03-26T12:31:31.588Z,11.49
2023-03-26T12:36:40.550Z,11.52
2023-03-26T12:44:42.568Z,11.54
2023-03-26T12:47:56.570Z,11.55
2023-03-26T12:53:08.308Z,11.62
2023-03-26T12:58:41.540Z,11.71
2023-03-26T13:04:10.147Z,11.82
2023-03-26T13:09:57.343Z,11.92
2023-03-26T13:15:18.070Z,11.98
2023-03-26T13:20:34.046Z,12.04
2023-03-26T13:25:56.493Z,12.05
2023-03-26T13:31:11.195Z,12.03
2023-03-26T13:36:25.164Z,11.98
2023-03-26T13:41:46.507Z,11.91
2023-03-26T13:47:01.487Z,11.83
2023-03-26T13:52:14.763Z,11.73
2023-03-26T13:57:27.274Z,11.61
2023-03-26T14:02:39.499Z,11.46
2023-03-26T14:07:49.765Z,11.31
2023-03-26T14:13:02.438Z,11.16
2023-03-26T14:18:27.032Z,11.05
2023-03-26T14:23:54.708Z,10.92
2023-03-26T14:29:31.485Z,10.81
2023-03-26T14:34:54.939Z,10.73
2023-03-26T14:40:32.605Z,10.69
2023-03-26T14:46:08.239Z,10.67
2023-03-26T14:51:29.137Z,10.67
2023-03-26T14:57:04.874Z,10.66
2023-03-26T15:02:47.575Z,10.63
2023-03-26T15:08:23.832Z,10.61
2023-03-26T15:14:12.888Z,10.57
2023-03-26T15:19:47.270Z,10.52
2023-03-26T15:25:30.557Z,10.48
2023-03-26T15:31:10.337Z,10.44
2023-03-26T15:37:00.833Z,10.38
2023-03-26T15:42:17.501Z,10.33
2023-03-26T15:47:54.612Z,10.30
2023-03-26T15:53:15.233Z,10.26
2023-03-26T15:58:31.162Z,10.24
2023-03-26T16:03:50.860Z,10.22
2023-03-26T16:09:13.205Z,10.19
2023-03-26T16:14:24.534Z,10.17
2023-03-26T16:19:52.409Z,10.13
2023-03-26T16:25:27.357Z,10.09
2023-03-26T16:30:38.152Z,10.04
2023-03-26T16:36:18.948Z,10.00
2023-03-26T16:41:30.936Z,9.94
2023-03-26T16:46:52.265Z,9.90
2023-03-26T16:52:13.212Z,9.85
2023-03-26T16:57:40.310Z,9.81
2023-03-26T17:03:00.333Z,9.76
2023-03-26T17:08:36.400Z,9.72
2023-03-26T17:13:56.764Z,9.68
2023-03-26T17:19:16.162Z,9.63
2023-03-26T17:24:39.449Z,9.58
2023-03-26T17:30:38.227Z,9.53
2023-03-26T17:35:48.717Z,9.50
2023-03-26T17:40:59.163Z,9.46
2023-03-26T17:46:15.380Z,9.42
2023-03-26T17:51:49.280Z,9.39
2023-03-26T17:57:03.898Z,9.35
2023-03-26T18:02:18.854Z,9.30
2023-03-26T18:07:57.327Z,9.26
2023-03-26T18:13:37.743Z,9.20
2023-03-26T18:18:53.173Z,9.14
2023-03-26T18:24:03.386Z,9.08
2023-03-26T18:29:27.670Z,9.01
2023-03-26T18:34:41.829Z,8.93
2023-03-26T18:40:02.706Z,8.85
2023-03-26T18:45:18.615Z,8.75
2023-03-26T18:50:30.598Z,8.67
2023-03-26T18:55:39.998Z,8.58
2023-03-26T19:00:50.371Z,8.50
2023-03-26T19:06:00.240Z,8.45
2023-03-26T19:11:10.919Z,8.38
2023-03-26T19:16:26.810Z,8.34
2023-03-26T19:21:36.461Z,8.30
2023-03-26T19:26:45.522Z,8.27
2023-03-26T19:32:03.482Z,8.25
2023-03-26T19:37:25.530Z,8.23
2023-03-26T19:42:44.059Z,8.21
2023-03-26T19:48:07.358Z,8.20
2023-03-26T19:53:33.328Z,8.18
2023-03-26T19:58:42.490Z,8.17
2023-03-26T20:03:53.933Z,8.17
2023-03-26T20:09:01.589Z,8.16
2023-03-26T20:14:16.001Z,8.16
2023-03-26T20:19:25.472Z,8.16
2023-03-26T20:24:35.207Z,8.16
2023-03-26T20:29:44.126Z,8.15
2023-03-26T20:34:53.150Z,8.15
2023-03-26T20:40:01.451Z,8.13
2023-03-26T20:45:19.830Z,8.13
2023-03-26T20:50:28.808Z,8.12
2023-03-26T20:55:37.429Z,8.11
2023-03-26T21:00:46.939Z,8.10
2023-03-26T21:05:55.459Z,8.10
2023-03-26T21:11:03.863Z,8.09
2023-03-26T21:16:15.019Z,8.09
2023-03-26T21:21:37.496Z,8.09
2023-03-26T21:26:51.653Z,8.08
2023-03-26T21:32:00.700Z,8.07
2023-03-26T21:37:09.521Z,8.06
2023-03-26T21:42:18.306Z,8.04
2023-03-26T21:47:27.535Z,8.03
2023-03-26T21:52:37.596Z,8.01
2023-03-26T21:58:03.636Z,7.99
2023-03-26T22:03:21.120Z,7.96
2023-03-26T22:08:34.886Z,7.94
2023-03-26T22:13:43.166Z,7.90
2023-03-26T22:18:51.265Z,7.86
2023-03-26T22:23:58.738Z,7.81
2023-03-26T22:29:07.368Z,7.75
2023-03-26T22:34:15.705Z,7.68
2023-03-26T22:39:23.489Z,7.59
2023-03-26T22:44:31.825Z,7.52
2023-03-26T22:49:40.405Z,7.42
2023-03-26T22:54:47.864Z,7.32
2023-03-26T22:59:56.232Z,7.23
2023-03-26T23:05:03.618Z,7.19
2023-03-26T23:10:14.100Z,7.14
2023-03-26T23:15:21.456Z,7.07
2023-03-26T23:20:29.642Z,6.99
2023-03-26T23:25:37.095Z,6.90
2023-03-26T23:30:52.633Z,6.82
2023-03-26T23:36:07.531Z,6.72
2023-03-26T23:41:17.745Z,6.62
2023-03-26T23:46:31.949Z,6.51
2023-03-26T23:51:40.307Z,6.40
2023-03-26T23:56:49.415Z,6.28
